sensor_id;sensor_type;location;lat;lon;timestamp;P1;durP1;ratioP1;P2;durP2;ratioP2
67869;SDS011;54673;52.262;6.830;2022-12-18T00:01:24;20.03;;;8.17;;
67869;SDS011;54673;52.262;6.830;2022-12-18T00:03:52;18.27;;;7.68;;
67869;SDS011;54673;52.262;6.830;2022-12-18T00:06:19;22.77;;;8.00;;
67869;SDS011;54673;52.262;6.830;2022-12-18T00:08:45;18.80;;;8.15;;
67869;SDS011;54673;52.262;6.830;2022-12-18T00:11:12;21.23;;;8.40;;
67869;SDS011;54673;52.262;6.830;2022-12-18T00:13:40;19.13;;;7.63;;
67869;SDS011;54673;52.262;6.830;2022-12-18T00:16:06;16.38;;;7.28;;
67869;SDS011;54673;52.262;6.830;2022-12-18T00:18:34;17.17;;;7.87;;
67869;SDS011;54673;52.262;6.830;2022-12-18T00:21:01;17.35;;;7.90;;
67869;SDS011;54673;52.262;6.830;2022-12-18T00:23:28;21.90;;;8.05;;
67869;SDS011;54673;52.262;6.830;2022-12-18T00:25:58;17.27;;;7.43;;
67869;SDS011;54673;52.262;6.830;2022-12-18T00:28:24;19.50;;;8.50;;
67869;SDS011;54673;52.262;6.830;2022-12-18T00:30:50;21.50;;;7.67;;
67869;SDS011;54673;52.262;6.830;2022-12-18T00:33:16;18.15;;;8.13;;
67869;SDS011;54673;52.262;6.830;2022-12-18T00:35:42;18.35;;;7.95;;
67869;SDS011;54673;52.262;6.830;2022-12-18T00:38:08;17.23;;;7.67;;
67869;SDS011;54673;52.262;6.830;2022-12-18T00:40:34;17.87;;;7.50;;
67869;SDS011;54673;52.262;6.830;2022-12-18T00:42:59;19.02;;;7.75;;
67869;SDS011;54673;52.262;6.830;2022-12-18T00:45:26;18.57;;;7.93;;
67869;SDS011;54673;52.262;6.830;2022-12-18T00:47:53;16.83;;;7.50;;
67869;SDS011;54673;52.262;6.830;2022-12-18T00:50:20;17.90;;;7.60;;
67869;SDS011;54673;52.262;6.830;2022-12-18T00:52:46;18.17;;;8.30;;
67869;SDS011;54673;52.262;6.830;2022-12-18T00:55:12;17.13;;;8.07;;
67869;SDS011;54673;52.262;6.830;2022-12-18T00:57:38;18.57;;;8.17;;
67869;SDS011;54673;52.262;6.830;2022-12-18T01:00:05;19.30;;;7.97;;
67869;SDS011;54673;52.262;6.830;2022-12-18T01:02:32;17.75;;;7.78;;
67869;SDS011;54673;52.262;6.830;2022-12-18T01:04:58;15.80;;;7.47;;
67869;SDS011;54673;52.262;6.830;2022-12-18T01:07:24;17.58;;;7.78;;
67869;SDS011;54673;52.262;6.830;2022-12-18T01:09:49;16.73;;;7.57;;
67869;SDS011;54673;52.262;6.830;2022-12-18T01:12:15;17.83;;;7.67;;
67869;SDS011;54673;52.262;6.830;2022-12-18T01:14:41;17.13;;;7.22;;
67869;SDS011;54673;52.262;6.830;2022-12-18T01:17:06;13.87;;;6.83;;
67869;SDS011;54673;52.262;6.830;2022-12-18T01:19:32;19.35;;;7.68;;
67869;SDS011;54673;52.262;6.830;2022-12-18T01:21:58;16.37;;;7.27;;
67869;SDS011;54673;52.262;6.830;2022-12-18T01:24:23;20.27;;;7.72;;
67869;SDS011;54673;52.262;6.830;2022-12-18T01:26:49;14.97;;;6.90;;
67869;SDS011;54673;52.262;6.830;2022-12-18T01:29:15;16.48;;;7.32;;
67869;SDS011;54673;52.262;6.830;2022-12-18T01:31:40;17.77;;;8.00;;
67869;SDS011;54673;52.262;6.830;2022-12-18T01:34:06;15.40;;;6.85;;
67869;SDS011;54673;52.262;6.830;2022-12-18T01:36:32;12.03;;;6.63;;
67869;SDS011;54673;52.262;6.830;2022-12-18T01:39:00;16.67;;;7.43;;
67869;SDS011;54673;52.262;6.830;2022-12-18T01:41:29;16.53;;;7.40;;
67869;SDS011;54673;52.262;6.830;2022-12-18T01:49:55;15.93;;;7.43;;
67869;SDS011;54673;52.262;6.830;2022-12-18T01:52:22;12.65;;;6.65;;
67869;SDS011;54673;52.262;6.830;2022-12-18T01:54:49;16.97;;;6.90;;
67869;SDS011;54673;52.262;6.830;2022-12-18T01:57:16;14.60;;;7.35;;
67869;SDS011;54673;52.262;6.830;2022-12-18T01:59:42;16.50;;;7.77;;
67869;SDS011;54673;52.262;6.830;2022-12-18T02:02:12;13.13;;;6.70;;
67869;SDS011;54673;52.262;6.830;2022-12-18T02:04:40;15.57;;;7.30;;
67869;SDS011;54673;52.262;6.830;2022-12-18T02:07:08;15.73;;;7.50;;
67869;SDS011;54673;52.262;6.830;2022-12-18T02:09:41;15.45;;;7.78;;
67869;SDS011;54673;52.262;6.830;2022-12-18T02:12:19;12.43;;;6.43;;
67869;SDS011;54673;52.262;6.830;2022-12-18T02:17:55;13.33;;;6.77;;
67869;SDS011;54673;52.262;6.830;2022-12-18T02:20:45;14.30;;;6.18;;
67869;SDS011;54673;52.262;6.830;2022-12-18T02:28:35;14.07;;;7.15;;
67869;SDS011;54673;52.262;6.830;2022-12-18T02:31:06;13.60;;;6.60;;
67869;SDS011;54673;52.262;6.830;2022-12-18T02:33:34;14.68;;;7.28;;
67869;SDS011;54673;52.262;6.830;2022-12-18T02:36:02;14.07;;;7.15;;
67869;SDS011;54673;52.262;6.830;2022-12-18T02:38:29;12.63;;;6.67;;
67869;SDS011;54673;52.262;6.830;2022-12-18T02:40:56;14.05;;;6.82;;
67869;SDS011;54673;52.262;6.830;2022-12-18T02:43:22;14.17;;;6.67;;
67869;SDS011;54673;52.262;6.830;2022-12-18T02:45:56;15.82;;;7.32;;
67869;SDS011;54673;52.262;6.830;2022-12-18T02:48:24;15.50;;;6.95;;
67869;SDS011;54673;52.262;6.830;2022-12-18T02:53:45;12.25;;;5.80;;
67869;SDS011;54673;52.262;6.830;2022-12-18T02:56:38;15.10;;;6.70;;
67869;SDS011;54673;52.262;6.830;2022-12-18T02:59:15;12.65;;;6.20;;
67869;SDS011;54673;52.262;6.830;2022-12-18T03:07:15;12.90;;;6.50;;
67869;SDS011;54673;52.262;6.830;2022-12-18T03:09:45;13.13;;;6.63;;
67869;SDS011;54673;52.262;6.830;2022-12-18T03:12:23;14.52;;;6.15;;
67869;SDS011;54673;52.262;6.830;2022-12-18T03:17:23;13.07;;;6.50;;
67869;SDS011;54673;52.262;6.830;2022-12-18T03:19:51;12.32;;;6.57;;
67869;SDS011;54673;52.262;6.830;2022-12-18T03:22:22;13.50;;;6.60;;
67869;SDS011;54673;52.262;6.830;2022-12-18T03:24:51;13.57;;;6.38;;
67869;SDS011;54673;52.262;6.830;2022-12-18T03:27:19;12.97;;;5.90;;
67869;SDS011;54673;52.262;6.830;2022-12-18T03:29:48;12.85;;;6.38;;
67869;SDS011;54673;52.262;6.830;2022-12-18T03:32:20;11.95;;;5.75;;
67869;SDS011;54673;52.262;6.830;2022-12-18T03:34:51;12.23;;;6.00;;
67869;SDS011;54673;52.262;6.830;2022-12-18T03:37:20;12.50;;;6.47;;
67869;SDS011;54673;52.262;6.830;2022-12-18T03:39:46;13.60;;;5.90;;
67869;SDS011;54673;52.262;6.830;2022-12-18T03:42:21;12.68;;;6.05;;
67869;SDS011;54673;52.262;6.830;2022-12-18T03:45:09;13.60;;;7.03;;
67869;SDS011;54673;52.262;6.830;2022-12-18T03:47:37;12.07;;;5.90;;
67869;SDS011;54673;52.262;6.830;2022-12-18T03:50:16;13.20;;;6.07;;
67869;SDS011;54673;52.262;6.830;2022-12-18T03:55:55;11.50;;;6.63;;
67869;SDS011;54673;52.262;6.830;2022-12-18T03:58:24;10.77;;;5.73;;
67869;SDS011;54673;52.262;6.830;2022-12-18T04:00:52;12.70;;;6.25;;
67869;SDS011;54673;52.262;6.830;2022-12-18T04:03:25;14.00;;;6.35;;
67869;SDS011;54673;52.262;6.830;2022-12-18T04:05:52;13.13;;;5.77;;
67869;SDS011;54673;52.262;6.830;2022-12-18T04:08:20;11.23;;;6.10;;
67869;SDS011;54673;52.262;6.830;2022-12-18T04:10:47;12.47;;;5.77;;
67869;SDS011;54673;52.262;6.830;2022-12-18T04:13:13;12.57;;;5.82;;
67869;SDS011;54673;52.262;6.830;2022-12-18T04:15:47;12.48;;;6.10;;
67869;SDS011;54673;52.262;6.830;2022-12-18T04:18:13;12.33;;;6.07;;
67869;SDS011;54673;52.262;6.830;2022-12-18T04:20:39;10.88;;;6.18;;
67869;SDS011;54673;52.262;6.830;2022-12-18T04:23:04;11.20;;;5.47;;
67869;SDS011;54673;52.262;6.830;2022-12-18T04:25:30;12.80;;;6.00;;
67869;SDS011;54673;52.262;6.830;2022-12-18T04:27:55;14.73;;;6.68;;
67869;SDS011;54673;52.262;6.830;2022-12-18T04:30:21;12.93;;;6.33;;
67869;SDS011;54673;52.262;6.830;2022-12-18T04:32:47;11.27;;;5.95;;
67869;SDS011;54673;52.262;6.830;2022-12-18T04:35:12;11.50;;;5.60;;
67869;SDS011;54673;52.262;6.830;2022-12-18T04:37:38;12.93;;;5.63;;
67869;SDS011;54673;52.262;6.830;2022-12-18T04:40:03;10.50;;;5.07;;
67869;SDS011;54673;52.262;6.830;2022-12-18T04:42:30;9.52;;;5.38;;
67869;SDS011;54673;52.262;6.830;2022-12-18T04:44:55;10.00;;;5.77;;
67869;SDS011;54673;52.262;6.830;2022-12-18T04:47:21;9.93;;;5.57;;
67869;SDS011;54673;52.262;6.830;2022-12-18T04:49:47;11.65;;;5.65;;
67869;SDS011;54673;52.262;6.830;2022-12-18T04:52:12;11.87;;;5.87;;
67869;SDS011;54673;52.262;6.830;2022-12-18T04:54:38;10.13;;;6.05;;
67869;SDS011;54673;52.262;6.830;2022-12-18T04:57:04;10.13;;;5.60;;
67869;SDS011;54673;52.262;6.830;2022-12-18T04:59:29;11.65;;;5.57;;
67869;SDS011;54673;52.262;6.830;2022-12-18T05:01:55;9.77;;;5.40;;
67869;SDS011;54673;52.262;6.830;2022-12-18T05:04:21;12.52;;;5.90;;
67869;SDS011;54673;52.262;6.830;2022-12-18T05:06:46;10.73;;;5.50;;
67869;SDS011;54673;52.262;6.830;2022-12-18T05:09:12;11.00;;;5.10;;
67869;SDS011;54673;52.262;6.830;2022-12-18T05:11:37;11.80;;;6.13;;
67869;SDS011;54673;52.262;6.830;2022-12-18T05:14:03;11.87;;;5.33;;
67869;SDS011;54673;52.262;6.830;2022-12-18T05:16:29;9.70;;;5.60;;
67869;SDS011;54673;52.262;6.830;2022-12-18T05:18:54;10.57;;;5.73;;
67869;SDS011;54673;52.262;6.830;2022-12-18T05:21:20;10.07;;;5.10;;
67869;SDS011;54673;52.262;6.830;2022-12-18T05:23:45;10.70;;;5.50;;
67869;SDS011;54673;52.262;6.830;2022-12-18T05:26:14;10.47;;;5.17;;
67869;SDS011;54673;52.262;6.830;2022-12-18T05:28:42;13.02;;;5.80;;
67869;SDS011;54673;52.262;6.830;2022-12-18T05:31:07;11.40;;;5.43;;
67869;SDS011;54673;52.262;6.830;2022-12-18T05:33:34;12.03;;;5.43;;
67869;SDS011;54673;52.262;6.830;2022-12-18T05:36:00;11.10;;;5.57;;
67869;SDS011;54673;52.262;6.830;2022-12-18T05:38:28;10.00;;;5.40;;
67869;SDS011;54673;52.262;6.830;2022-12-18T05:40:55;10.18;;;5.20;;
67869;SDS011;54673;52.262;6.830;2022-12-18T05:43:21;10.87;;;5.27;;
67869;SDS011;54673;52.262;6.830;2022-12-18T05:45:48;8.68;;;5.03;;
67869;SDS011;54673;52.262;6.830;2022-12-18T05:48:15;10.38;;;5.10;;
67869;SDS011;54673;52.262;6.830;2022-12-18T05:50:42;9.77;;;4.93;;
67869;SDS011;54673;52.262;6.830;2022-12-18T05:53:10;10.00;;;5.18;;
67869;SDS011;54673;52.262;6.830;2022-12-18T05:55:37;10.50;;;5.03;;
67869;SDS011;54673;52.262;6.830;2022-12-18T05:58:05;9.88;;;5.07;;
67869;SDS011;54673;52.262;6.830;2022-12-18T06:00:33;9.75;;;5.18;;
67869;SDS011;54673;52.262;6.830;2022-12-18T06:03:01;11.07;;;5.30;;
67869;SDS011;54673;52.262;6.830;2022-12-18T06:05:27;9.70;;;5.40;;
67869;SDS011;54673;52.262;6.830;2022-12-18T06:07:53;8.63;;;5.43;;
67869;SDS011;54673;52.262;6.830;2022-12-18T06:10:18;9.00;;;5.15;;
67869;SDS011;54673;52.262;6.830;2022-12-18T06:12:44;10.30;;;4.85;;
67869;SDS011;54673;52.262;6.830;2022-12-18T06:15:10;8.27;;;4.80;;
67869;SDS011;54673;52.262;6.830;2022-12-18T06:17:36;8.80;;;4.60;;
67869;SDS011;54673;52.262;6.830;2022-12-18T06:20:02;8.93;;;4.63;;
67869;SDS011;54673;52.262;6.830;2022-12-18T06:22:30;7.97;;;4.65;;
67869;SDS011;54673;52.262;6.830;2022-12-18T06:24:57;9.00;;;4.80;;
67869;SDS011;54673;52.262;6.830;2022-12-18T06:27:22;8.55;;;4.60;;
67869;SDS011;54673;52.262;6.830;2022-12-18T06:29:48;7.60;;;4.47;;
67869;SDS011;54673;52.262;6.830;2022-12-18T06:32:14;7.82;;;4.00;;
67869;SDS011;54673;52.262;6.830;2022-12-18T06:34:40;7.73;;;4.47;;
67869;SDS011;54673;52.262;6.830;2022-12-18T06:37:05;8.38;;;4.55;;
67869;SDS011;54673;52.262;6.830;2022-12-18T06:39:31;8.50;;;4.30;;
67869;SDS011;54673;52.262;6.830;2022-12-18T06:41:57;8.35;;;4.40;;
67869;SDS011;54673;52.262;6.830;2022-12-18T06:44:22;8.20;;;4.37;;
67869;SDS011;54673;52.262;6.830;2022-12-18T06:46:48;7.75;;;4.10;;
67869;SDS011;54673;52.262;6.830;2022-12-18T06:49:14;7.77;;;4.07;;
67869;SDS011;54673;52.262;6.830;2022-12-18T06:51:41;7.95;;;4.32;;
67869;SDS011;54673;52.262;6.830;2022-12-18T06:54:07;6.53;;;3.87;;
67869;SDS011;54673;52.262;6.830;2022-12-18T06:56:33;9.07;;;4.32;;
67869;SDS011;54673;52.262;6.830;2022-12-18T06:58:59;7.88;;;4.22;;
67869;SDS011;54673;52.262;6.830;2022-12-18T07:01:25;7.73;;;4.60;;
67869;SDS011;54673;52.262;6.830;2022-12-18T07:03:52;8.25;;;4.70;;
67869;SDS011;54673;52.262;6.830;2022-12-18T07:06:20;9.00;;;4.63;;
67869;SDS011;54673;52.262;6.830;2022-12-18T07:08:48;8.43;;;3.95;;
67869;SDS011;54673;52.262;6.830;2022-12-18T07:11:14;9.20;;;4.40;;
67869;SDS011;54673;52.262;6.830;2022-12-18T07:13:41;7.80;;;4.37;;
67869;SDS011;54673;52.262;6.830;2022-12-18T07:16:08;9.50;;;4.43;;
67869;SDS011;54673;52.262;6.830;2022-12-18T07:18:35;9.67;;;4.47;;
67869;SDS011;54673;52.262;6.830;2022-12-18T07:21:05;6.45;;;3.95;;
67869;SDS011;54673;52.262;6.830;2022-12-18T07:23:32;7.60;;;4.07;;
67869;SDS011;54673;52.262;6.830;2022-12-18T07:26:03;6.50;;;4.30;;
67869;SDS011;54673;52.262;6.830;2022-12-18T07:28:29;7.20;;;4.13;;
67869;SDS011;54673;52.262;6.830;2022-12-18T07:30:55;6.23;;;4.03;;
67869;SDS011;54673;52.262;6.830;2022-12-18T07:33:20;7.53;;;3.92;;
67869;SDS011;54673;52.262;6.830;2022-12-18T07:35:46;5.97;;;3.90;;
67869;SDS011;54673;52.262;6.830;2022-12-18T07:38:11;7.15;;;3.63;;
67869;SDS011;54673;52.262;6.830;2022-12-18T07:40:37;6.87;;;3.53;;
67869;SDS011;54673;52.262;6.830;2022-12-18T07:43:03;6.47;;;3.80;;
67869;SDS011;54673;52.262;6.830;2022-12-18T07:45:28;7.03;;;3.80;;
67869;SDS011;54673;52.262;6.830;2022-12-18T07:47:56;7.85;;;4.40;;
67869;SDS011;54673;52.262;6.830;2022-12-18T07:50:21;6.53;;;4.23;;
67869;SDS011;54673;52.262;6.830;2022-12-18T07:52:47;7.07;;;3.90;;
67869;SDS011;54673;52.262;6.830;2022-12-18T07:55:12;6.18;;;3.80;;
67869;SDS011;54673;52.262;6.830;2022-12-18T07:57:38;6.75;;;3.92;;
67869;SDS011;54673;52.262;6.830;2022-12-18T08:00:04;6.90;;;4.00;;
67869;SDS011;54673;52.262;6.830;2022-12-18T08:02:31;6.50;;;3.55;;
67869;SDS011;54673;52.262;6.830;2022-12-18T08:04:56;7.80;;;3.60;;
67869;SDS011;54673;52.262;6.830;2022-12-18T08:07:23;5.18;;;3.65;;
67869;SDS011;54673;52.262;6.830;2022-12-18T08:09:48;6.23;;;3.73;;
67869;SDS011;54673;52.262;6.830;2022-12-18T08:12:14;6.55;;;3.70;;
67869;SDS011;54673;52.262;6.830;2022-12-18T08:14:40;6.83;;;3.70;;
67869;SDS011;54673;52.262;6.830;2022-12-18T08:17:05;5.97;;;3.50;;
67869;SDS011;54673;52.262;6.830;2022-12-18T08:19:31;5.00;;;3.20;;
67869;SDS011;54673;52.262;6.830;2022-12-18T08:21:57;6.07;;;3.80;;
67869;SDS011;54673;52.262;6.830;2022-12-18T08:24:22;6.33;;;3.97;;
67869;SDS011;54673;52.262;6.830;2022-12-18T08:26:48;5.43;;;3.30;;
67869;SDS011;54673;52.262;6.830;2022-12-18T08:29:14;6.03;;;3.40;;
67869;SDS011;54673;52.262;6.830;2022-12-18T08:31:39;6.00;;;3.60;;
67869;SDS011;54673;52.262;6.830;2022-12-18T08:34:05;6.93;;;3.80;;
67869;SDS011;54673;52.262;6.830;2022-12-18T08:36:31;5.70;;;3.58;;
67869;SDS011;54673;52.262;6.830;2022-12-18T08:38:57;6.27;;;3.63;;
67869;SDS011;54673;52.262;6.830;2022-12-18T08:41:23;6.05;;;3.53;;
67869;SDS011;54673;52.262;6.830;2022-12-18T08:43:48;4.90;;;3.03;;
67869;SDS011;54673;52.262;6.830;2022-12-18T08:46:39;5.00;;;3.03;;
67869;SDS011;54673;52.262;6.830;2022-12-18T08:49:07;5.00;;;3.20;;
67869;SDS011;54673;52.262;6.830;2022-12-18T08:51:33;6.63;;;3.05;;
67869;SDS011;54673;52.262;6.830;2022-12-18T08:54:00;6.70;;;3.78;;
67869;SDS011;54673;52.262;6.830;2022-12-18T08:56:27;5.63;;;3.00;;
67869;SDS011;54673;52.262;6.830;2022-12-18T08:58:53;5.78;;;3.20;;
67869;SDS011;54673;52.262;6.830;2022-12-18T09:01:19;4.93;;;3.07;;
67869;SDS011;54673;52.262;6.830;2022-12-18T09:03:46;5.55;;;3.58;;
67869;SDS011;54673;52.262;6.830;2022-12-18T09:06:15;4.78;;;2.88;;
67869;SDS011;54673;52.262;6.830;2022-12-18T09:08:43;5.33;;;2.60;;
67869;SDS011;54673;52.262;6.830;2022-12-18T09:11:11;4.95;;;3.20;;
67869;SDS011;54673;52.262;6.830;2022-12-18T09:13:39;4.00;;;2.90;;
67869;SDS011;54673;52.262;6.830;2022-12-18T09:16:04;5.22;;;3.00;;
67869;SDS011;54673;52.262;6.830;2022-12-18T09:18:30;5.30;;;3.30;;
67869;SDS011;54673;52.262;6.830;2022-12-18T09:20:56;6.07;;;3.03;;
67869;SDS011;54673;52.262;6.830;2022-12-18T09:23:21;4.83;;;3.10;;
67869;SDS011;54673;52.262;6.830;2022-12-18T09:25:48;4.45;;;2.60;;
67869;SDS011;54673;52.262;6.830;2022-12-18T09:28:15;4.90;;;2.93;;
67869;SDS011;54673;52.262;6.830;2022-12-18T09:30:43;5.45;;;3.10;;
67869;SDS011;54673;52.262;6.830;2022-12-18T09:33:11;4.65;;;2.75;;
67869;SDS011;54673;52.262;6.830;2022-12-18T09:35:37;4.37;;;2.60;;
67869;SDS011;54673;52.262;6.830;2022-12-18T09:38:03;5.43;;;2.78;;
67869;SDS011;54673;52.262;6.830;2022-12-18T09:40:32;4.33;;;2.80;;
67869;SDS011;54673;52.262;6.830;2022-12-18T09:46:09;5.40;;;3.17;;
67869;SDS011;54673;52.262;6.830;2022-12-18T09:48:41;3.87;;;2.30;;
67869;SDS011;54673;52.262;6.830;2022-12-18T09:51:15;5.22;;;2.50;;
67869;SDS011;54673;52.262;6.830;2022-12-18T09:53:45;5.00;;;2.70;;
67869;SDS011;54673;52.262;6.830;2022-12-18T09:56:19;4.00;;;2.67;;
67869;SDS011;54673;52.262;6.830;2022-12-18T09:58:58;4.47;;;2.47;;
67869;SDS011;54673;52.262;6.830;2022-12-18T10:01:25;3.83;;;2.37;;
67869;SDS011;54673;52.262;6.830;2022-12-18T10:03:53;4.50;;;2.90;;
67869;SDS011;54673;52.262;6.830;2022-12-18T10:08:57;5.78;;;2.88;;
67869;SDS011;54673;52.262;6.830;2022-12-18T10:11:31;3.67;;;2.60;;
67869;SDS011;54673;52.262;6.830;2022-12-18T10:14:26;4.57;;;2.50;;
67869;SDS011;54673;52.262;6.830;2022-12-18T10:17:18;6.00;;;2.78;;
67869;SDS011;54673;52.262;6.830;2022-12-18T10:20:21;4.23;;;2.50;;
67869;SDS011;54673;52.262;6.830;2022-12-18T10:23:01;5.38;;;2.50;;
67869;SDS011;54673;52.262;6.830;2022-12-18T10:26:12;6.60;;;2.42;;
67869;SDS011;54673;52.262;6.830;2022-12-18T10:28:20;7.87;;;2.40;;
67869;SDS011;54673;52.262;6.830;2022-12-18T10:30:48;3.95;;;2.42;;
67869;SDS011;54673;52.262;6.830;2022-12-18T10:33:18;3.67;;;2.10;;
67869;SDS011;54673;52.262;6.830;2022-12-18T10:35:47;3.97;;;2.30;;
67869;SDS011;54673;52.262;6.830;2022-12-18T10:43:28;7.20;;;2.10;;
67869;SDS011;54673;52.262;6.830;2022-12-18T10:48:54;3.93;;;2.37;;
67869;SDS011;54673;52.262;6.830;2022-12-18T10:51:20;4.35;;;1.75;;
67869;SDS011;54673;52.262;6.830;2022-12-18T10:54:31;3.47;;;2.17;;
67869;SDS011;54673;52.262;6.830;2022-12-18T10:56:40;3.97;;;2.33;;
67869;SDS011;54673;52.262;6.830;2022-12-18T10:59:07;3.40;;;2.20;;
67869;SDS011;54673;52.262;6.830;2022-12-18T11:01:51;5.53;;;2.08;;
67869;SDS011;54673;52.262;6.830;2022-12-18T11:06:57;3.70;;;2.30;;
67869;SDS011;54673;52.262;6.830;2022-12-18T11:09:35;4.00;;;2.07;;
67869;SDS011;54673;52.262;6.830;2022-12-18T11:12:03;3.33;;;2.13;;
67869;SDS011;54673;52.262;6.830;2022-12-18T11:17:28;3.23;;;1.70;;
67869;SDS011;54673;52.262;6.830;2022-12-18T11:20:03;2.80;;;1.88;;
67869;SDS011;54673;52.262;6.830;2022-12-18T11:22:32;3.10;;;2.07;;
67869;SDS011;54673;52.262;6.830;2022-12-18T11:25:00;2.38;;;1.52;;
67869;SDS011;54673;52.262;6.830;2022-12-18T11:27:30;4.63;;;2.10;;
67869;SDS011;54673;52.262;6.830;2022-12-18T11:32:49;2.40;;;1.70;;
67869;SDS011;54673;52.262;6.830;2022-12-18T11:37:58;4.82;;;1.85;;
67869;SDS011;54673;52.262;6.830;2022-12-18T11:40:36;3.13;;;1.70;;
67869;SDS011;54673;52.262;6.830;2022-12-18T11:50:58;2.42;;;1.63;;
67869;SDS011;54673;52.262;6.830;2022-12-18T11:53:26;3.27;;;1.53;;
67869;SDS011;54673;52.262;6.830;2022-12-18T11:59:01;2.50;;;1.63;;
67869;SDS011;54673;52.262;6.830;2022-12-18T12:04:30;3.75;;;1.85;;
67869;SDS011;54673;52.262;6.830;2022-12-18T12:07:21;3.13;;;1.50;;
67869;SDS011;54673;52.262;6.830;2022-12-18T12:18:24;2.35;;;1.58;;
67869;SDS011;54673;52.262;6.830;2022-12-18T12:23:37;4.18;;;1.75;;
67869;SDS011;54673;52.262;6.830;2022-12-18T12:26:11;2.65;;;1.60;;
67869;SDS011;54673;52.262;6.830;2022-12-18T12:39:40;2.58;;;1.67;;
67869;SDS011;54673;52.262;6.830;2022-12-18T12:42:12;1.83;;;1.38;;
67869;SDS011;54673;52.262;6.830;2022-12-18T12:45:33;2.37;;;1.50;;
67869;SDS011;54673;52.262;6.830;2022-12-18T12:48:00;2.78;;;1.67;;
67869;SDS011;54673;52.262;6.830;2022-12-18T12:50:29;2.60;;;1.47;;
67869;SDS011;54673;52.262;6.830;2022-12-18T12:52:59;2.30;;;1.60;;
67869;SDS011;54673;52.262;6.830;2022-12-18T12:55:29;3.33;;;1.75;;
67869;SDS011;54673;52.262;6.830;2022-12-18T13:00:53;2.13;;;1.38;;
67869;SDS011;54673;52.262;6.830;2022-12-18T13:05:58;3.72;;;1.70;;
67869;SDS011;54673;52.262;6.830;2022-12-18T13:08:31;2.85;;;1.60;;
67869;SDS011;54673;52.262;6.830;2022-12-18T13:11:28;4.10;;;1.60;;
67869;SDS011;54673;52.262;6.830;2022-12-18T13:14:22;3.22;;;1.35;;
67869;SDS011;54673;52.262;6.830;2022-12-18T13:16:51;2.73;;;1.50;;
67869;SDS011;54673;52.262;6.830;2022-12-18T13:19:37;2.47;;;1.45;;
67869;SDS011;54673;52.262;6.830;2022-12-18T13:22:02;2.50;;;1.67;;
67869;SDS011;54673;52.262;6.830;2022-12-18T13:24:30;2.20;;;2.00;;
67869;SDS011;54673;52.262;6.830;2022-12-18T13:26:57;2.47;;;1.30;;
67869;SDS011;54673;52.262;6.830;2022-12-18T13:29:42;2.47;;;1.30;;
67869;SDS011;54673;52.262;6.830;2022-12-18T13:32:22;3.20;;;1.30;;
67869;SDS011;54673;52.262;6.830;2022-12-18T13:37:53;1.77;;;1.45;;
67869;SDS011;54673;52.262;6.830;2022-12-18T13:43:15;2.40;;;1.42;;
67869;SDS011;54673;52.262;6.830;2022-12-18T13:45:44;2.83;;;1.40;;
67869;SDS011;54673;52.262;6.830;2022-12-18T13:48:15;5.10;;;1.67;;
67869;SDS011;54673;52.262;6.830;2022-12-18T13:50:52;1.77;;;1.53;;
67869;SDS011;54673;52.262;6.830;2022-12-18T13:53:34;3.72;;;1.40;;
67869;SDS011;54673;52.262;6.830;2022-12-18T13:56:08;1.90;;;1.50;;
67869;SDS011;54673;52.262;6.830;2022-12-18T13:58:33;3.20;;;1.60;;
67869;SDS011;54673;52.262;6.830;2022-12-18T14:00:59;1.83;;;1.38;;
67869;SDS011;54673;52.262;6.830;2022-12-18T14:03:27;2.10;;;1.33;;
67869;SDS011;54673;52.262;6.830;2022-12-18T14:05:59;3.90;;;1.42;;
67869;SDS011;54673;52.262;6.830;2022-12-18T14:08:41;4.97;;;1.48;;
67869;SDS011;54673;52.262;6.830;2022-12-18T14:13:48;2.47;;;1.63;;
67869;SDS011;54673;52.262;6.830;2022-12-18T14:16:15;1.80;;;1.30;;
67869;SDS011;54673;52.262;6.830;2022-12-18T14:21:22;3.22;;;1.30;;
67869;SDS011;54673;52.262;6.830;2022-12-18T14:26:33;1.70;;;1.20;;
67869;SDS011;54673;52.262;6.830;2022-12-18T14:29:00;1.43;;;1.27;;
67869;SDS011;54673;52.262;6.830;2022-12-18T14:31:44;1.98;;;1.30;;
67869;SDS011;54673;52.262;6.830;2022-12-18T14:34:16;1.87;;;1.30;;
67869;SDS011;54673;52.262;6.830;2022-12-18T14:36:51;1.90;;;1.38;;
67869;SDS011;54673;52.262;6.830;2022-12-18T14:39:20;1.27;;;1.10;;
67869;SDS011;54673;52.262;6.830;2022-12-18T14:41:45;1.52;;;1.10;;
67869;SDS011;54673;52.262;6.830;2022-12-18T14:44:14;2.97;;;1.00;;
67869;SDS011;54673;52.262;6.830;2022-12-18T14:46:41;2.03;;;1.25;;
67869;SDS011;54673;52.262;6.830;2022-12-18T14:51:57;1.73;;;1.10;;
67869;SDS011;54673;52.262;6.830;2022-12-18T14:54:51;1.67;;;1.27;;
67869;SDS011;54673;52.262;6.830;2022-12-18T14:57:24;1.40;;;1.20;;
67869;SDS011;54673;52.262;6.830;2022-12-18T14:59:53;5.07;;;1.00;;
67869;SDS011;54673;52.262;6.830;2022-12-18T15:02:28;1.50;;;1.10;;
67869;SDS011;54673;52.262;6.830;2022-12-18T15:05:01;2.65;;;1.33;;
67869;SDS011;54673;52.262;6.830;2022-12-18T15:07:50;2.03;;;1.20;;
67869;SDS011;54673;52.262;6.830;2022-12-18T15:10:21;3.73;;;1.00;;
67869;SDS011;54673;52.262;6.830;2022-12-18T15:18:02;1.85;;;1.05;;
67869;SDS011;54673;52.262;6.830;2022-12-18T15:20:45;2.67;;;1.15;;
67869;SDS011;54673;52.262;6.830;2022-12-18T15:28:27;3.53;;;1.10;;
67869;SDS011;54673;52.262;6.830;2022-12-18T15:33:37;1.90;;;1.10;;
67869;SDS011;54673;52.262;6.830;2022-12-18T15:36:11;1.40;;;1.00;;
67869;SDS011;54673;52.262;6.830;2022-12-18T15:38:38;1.50;;;1.10;;
67869;SDS011;54673;52.262;6.830;2022-12-18T15:41:03;1.43;;;1.20;;
67869;SDS011;54673;52.262;6.830;2022-12-18T15:43:29;1.42;;;1.20;;
67869;SDS011;54673;52.262;6.830;2022-12-18T15:45:59;1.90;;;1.30;;
67869;SDS011;54673;52.262;6.830;2022-12-18T15:48:30;1.50;;;1.17;;
67869;SDS011;54673;52.262;6.830;2022-12-18T15:51:04;1.35;;;1.08;;
67869;SDS011;54673;52.262;6.830;2022-12-18T15:53:33;2.33;;;1.20;;
67869;SDS011;54673;52.262;6.830;2022-12-18T15:55:59;3.60;;;1.05;;
67869;SDS011;54673;52.262;6.830;2022-12-18T15:58:43;2.23;;;1.43;;
67869;SDS011;54673;52.262;6.830;2022-12-18T16:01:09;1.98;;;1.30;;
67869;SDS011;54673;52.262;6.830;2022-12-18T16:03:35;1.75;;;1.33;;
67869;SDS011;54673;52.262;6.830;2022-12-18T16:06:01;2.60;;;1.30;;
67869;SDS011;54673;52.262;6.830;2022-12-18T16:08:28;1.55;;;1.05;;
67869;SDS011;54673;52.262;6.830;2022-12-18T16:10:54;2.00;;;1.13;;
67869;SDS011;54673;52.262;6.830;2022-12-18T16:13:21;1.55;;;1.38;;
67869;SDS011;54673;52.262;6.830;2022-12-18T16:15:47;2.00;;;1.40;;
67869;SDS011;54673;52.262;6.830;2022-12-18T16:18:13;1.53;;;1.20;;
67869;SDS011;54673;52.262;6.830;2022-12-18T16:20:39;1.67;;;1.30;;
67869;SDS011;54673;52.262;6.830;2022-12-18T16:23:04;1.97;;;1.20;;
67869;SDS011;54673;52.262;6.830;2022-12-18T16:25:30;1.85;;;1.20;;
67869;SDS011;54673;52.262;6.830;2022-12-18T16:27:56;1.67;;;1.20;;
67869;SDS011;54673;52.262;6.830;2022-12-18T16:30:24;1.77;;;1.00;;
67869;SDS011;54673;52.262;6.830;2022-12-18T16:32:56;2.00;;;1.30;;
67869;SDS011;54673;52.262;6.830;2022-12-18T16:35:24;1.85;;;1.30;;
67869;SDS011;54673;52.262;6.830;2022-12-18T16:37:50;1.70;;;1.20;;
67869;SDS011;54673;52.262;6.830;2022-12-18T16:40:16;1.93;;;1.50;;
67869;SDS011;54673;52.262;6.830;2022-12-18T16:42:43;1.48;;;1.20;;
67869;SDS011;54673;52.262;6.830;2022-12-18T16:45:11;1.97;;;1.23;;
67869;SDS011;54673;52.262;6.830;2022-12-18T16:47:38;1.85;;;1.33;;
67869;SDS011;54673;52.262;6.830;2022-12-18T16:50:04;3.17;;;1.40;;
67869;SDS011;54673;52.262;6.830;2022-12-18T16:52:31;2.00;;;1.38;;
67869;SDS011;54673;52.262;6.830;2022-12-18T16:54:56;1.50;;;1.00;;
67869;SDS011;54673;52.262;6.830;2022-12-18T16:57:22;2.13;;;1.50;;
67869;SDS011;54673;52.262;6.830;2022-12-18T16:59:48;2.20;;;1.33;;